sensor_id;sensor_type;location;lat;lon;timestamp;P1;durP1;ratioP1;P2;durP2;ratioP2
54452;SDS011;40363;52.270;10.546;2023-02-28T00:00:08;10.65;;;4.70;;
54452;SDS011;40363;52.270;10.546;2023-02-28T00:02:36;7.70;;;4.97;;
54452;SDS011;40363;52.270;10.546;2023-02-28T00:05:03;8.25;;;4.70;;
54452;SDS011;40363;52.270;10.546;2023-02-28T00:07:32;8.65;;;4.60;;
54452;SDS011;40363;52.270;10.546;2023-02-28T00:09:59;9.30;;;4.13;;
54452;SDS011;40363;52.270;10.546;2023-02-28T00:12:26;7.30;;;4.20;;
54452;SDS011;40363;52.270;10.546;2023-02-28T00:14:52;8.82;;;4.95;;
54452;SDS011;40363;52.270;10.546;2023-02-28T00:17:19;7.95;;;5.05;;
54452;SDS011;40363;52.270;10.546;2023-02-28T00:19:47;12.05;;;4.93;;
54452;SDS011;40363;52.270;10.546;2023-02-28T00:22:14;11.82;;;4.95;;
54452;SDS011;40363;52.270;10.546;2023-02-28T00:24:42;8.80;;;4.75;;
54452;SDS011;40363;52.270;10.546;2023-02-28T00:27:09;7.32;;;4.55;;
54452;SDS011;40363;52.270;10.546;2023-02-28T00:29:36;8.68;;;4.68;;
54452;SDS011;40363;52.270;10.546;2023-02-28T00:32:03;6.53;;;4.00;;
54452;SDS011;40363;52.270;10.546;2023-02-28T00:34:30;8.60;;;4.45;;
54452;SDS011;40363;52.270;10.546;2023-02-28T00:37:02;9.23;;;4.22;;
54452;SDS011;40363;52.270;10.546;2023-02-28T00:39:29;9.45;;;4.82;;
54452;SDS011;40363;52.270;10.546;2023-02-28T00:41:57;6.97;;;4.28;;
54452;SDS011;40363;52.270;10.546;2023-02-28T00:44:24;9.30;;;5.10;;
54452;SDS011;40363;52.270;10.546;2023-02-28T00:46:50;7.47;;;3.85;;
54452;SDS011;40363;52.270;10.546;2023-02-28T00:49:19;12.15;;;4.90;;
54452;SDS011;40363;52.270;10.546;2023-02-28T00:51:46;5.60;;;4.13;;
54452;SDS011;40363;52.270;10.546;2023-02-28T00:54:12;17.20;;;6.25;;
54452;SDS011;40363;52.270;10.546;2023-02-28T00:56:39;9.43;;;4.90;;
54452;SDS011;40363;52.270;10.546;2023-02-28T00:59:07;6.35;;;4.30;;
54452;SDS011;40363;52.270;10.546;2023-02-28T01:01:34;6.75;;;4.75;;
54452;SDS011;40363;52.270;10.546;2023-02-28T01:04:01;7.20;;;4.15;;
54452;SDS011;40363;52.270;10.546;2023-02-28T01:06:28;7.03;;;4.28;;
54452;SDS011;40363;52.270;10.546;2023-02-28T01:08:54;12.45;;;5.22;;
54452;SDS011;40363;52.270;10.546;2023-02-28T01:11:21;6.03;;;4.45;;
54452;SDS011;40363;52.270;10.546;2023-02-28T01:13:47;10.93;;;4.85;;
54452;SDS011;40363;52.270;10.546;2023-02-28T01:16:16;6.82;;;4.65;;
54452;SDS011;40363;52.270;10.546;2023-02-28T01:18:42;9.75;;;4.43;;
54452;SDS011;40363;52.270;10.546;2023-02-28T01:21:11;14.98;;;5.18;;
54452;SDS011;40363;52.270;10.546;2023-02-28T01:23:40;8.07;;;4.78;;
54452;SDS011;40363;52.270;10.546;2023-02-28T01:26:08;10.50;;;5.05;;
54452;SDS011;40363;52.270;10.546;2023-02-28T01:28:36;9.45;;;4.15;;
54452;SDS011;40363;52.270;10.546;2023-02-28T01:31:03;10.77;;;4.68;;
54452;SDS011;40363;52.270;10.546;2023-02-28T01:33:32;9.30;;;4.80;;
54452;SDS011;40363;52.270;10.546;2023-02-28T01:35:59;7.15;;;4.50;;
54452;SDS011;40363;52.270;10.546;2023-02-28T01:38:26;9.50;;;4.78;;
54452;SDS011;40363;52.270;10.546;2023-02-28T01:40:53;8.02;;;5.03;;
54452;SDS011;40363;52.270;10.546;2023-02-28T01:43:21;6.65;;;3.65;;
54452;SDS011;40363;52.270;10.546;2023-02-28T01:45:50;8.25;;;5.10;;
54452;SDS011;40363;52.270;10.546;2023-02-28T01:48:17;10.18;;;4.32;;
54452;SDS011;40363;52.270;10.546;2023-02-28T01:50:46;6.18;;;4.57;;
54452;SDS011;40363;52.270;10.546;2023-02-28T01:53:14;12.63;;;5.43;;
54452;SDS011;40363;52.270;10.546;2023-02-28T01:55:45;9.23;;;4.53;;
54452;SDS011;40363;52.270;10.546;2023-02-28T01:58:14;8.75;;;4.72;;
54452;SDS011;40363;52.270;10.546;2023-02-28T02:00:42;9.45;;;4.63;;
54452;SDS011;40363;52.270;10.546;2023-02-28T02:03:09;6.30;;;3.58;;
54452;SDS011;40363;52.270;10.546;2023-02-28T02:05:38;7.22;;;3.75;;
54452;SDS011;40363;52.270;10.546;2023-02-28T02:08:08;7.38;;;4.20;;
54452;SDS011;40363;52.270;10.546;2023-02-28T02:10:39;9.15;;;4.25;;
54452;SDS011;40363;52.270;10.546;2023-02-28T02:13:12;6.85;;;3.70;;
54452;SDS011;40363;52.270;10.546;2023-02-28T02:15:48;5.93;;;3.30;;
54452;SDS011;40363;52.270;10.546;2023-02-28T02:18:25;6.80;;;3.13;;
54452;SDS011;40363;52.270;10.546;2023-02-28T02:21:09;9.18;;;4.20;;
54452;SDS011;40363;52.270;10.546;2023-02-28T02:24:04;4.40;;;3.28;;
54452;SDS011;40363;52.270;10.546;2023-02-28T02:29:47;6.30;;;3.20;;
54452;SDS011;40363;52.270;10.546;2023-02-28T02:35:27;8.82;;;3.60;;
54452;SDS011;40363;52.270;10.546;2023-02-28T02:37:59;5.57;;;3.10;;
54452;SDS011;40363;52.270;10.546;2023-02-28T02:40:35;6.85;;;3.95;;
54452;SDS011;40363;52.270;10.546;2023-02-28T02:43:06;3.88;;;3.15;;
54452;SDS011;40363;52.270;10.546;2023-02-28T02:45:40;5.22;;;3.88;;
54452;SDS011;40363;52.270;10.546;2023-02-28T02:48:11;7.70;;;3.75;;
54452;SDS011;40363;52.270;10.546;2023-02-28T02:50:43;8.18;;;4.40;;
54452;SDS011;40363;52.270;10.546;2023-02-28T02:53:13;9.00;;;4.68;;
54452;SDS011;40363;52.270;10.546;2023-02-28T02:55:44;10.65;;;5.13;;
54452;SDS011;40363;52.270;10.546;2023-02-28T02:58:20;5.35;;;3.70;;
54452;SDS011;40363;52.270;10.546;2023-02-28T03:00:51;7.22;;;4.47;;
54452;SDS011;40363;52.270;10.546;2023-02-28T03:03:21;7.07;;;4.25;;
54452;SDS011;40363;52.270;10.546;2023-02-28T03:05:55;8.02;;;4.75;;
54452;SDS011;40363;52.270;10.546;2023-02-28T03:08:23;5.82;;;4.55;;
54452;SDS011;40363;52.270;10.546;2023-02-28T03:10:50;7.78;;;4.72;;
54452;SDS011;40363;52.270;10.546;2023-02-28T03:13:26;10.00;;;4.47;;
54452;SDS011;40363;52.270;10.546;2023-02-28T03:16:18;9.23;;;4.60;;
54452;SDS011;40363;52.270;10.546;2023-02-28T03:18:56;6.13;;;3.92;;
54452;SDS011;40363;52.270;10.546;2023-02-28T03:21:31;4.35;;;3.03;;
54452;SDS011;40363;52.270;10.546;2023-02-28T03:24:03;5.18;;;3.53;;
54452;SDS011;40363;52.270;10.546;2023-02-28T03:26:33;4.63;;;3.28;;
54452;SDS011;40363;52.270;10.546;2023-02-28T03:29:05;7.20;;;4.32;;
54452;SDS011;40363;52.270;10.546;2023-02-28T03:31:43;4.28;;;2.92;;
54452;SDS011;40363;52.270;10.546;2023-02-28T03:34:15;6.07;;;3.17;;
54452;SDS011;40363;52.270;10.546;2023-02-28T03:36:53;7.85;;;4.30;;
54452;SDS011;40363;52.270;10.546;2023-02-28T03:39:23;5.20;;;3.10;;
54452;SDS011;40363;52.270;10.546;2023-02-28T03:41:54;5.78;;;3.08;;
54452;SDS011;40363;52.270;10.546;2023-02-28T03:44:27;5.50;;;3.20;;
54452;SDS011;40363;52.270;10.546;2023-02-28T03:46:57;2.80;;;2.17;;
54452;SDS011;40363;52.270;10.546;2023-02-28T03:49:27;6.60;;;3.20;;
54452;SDS011;40363;52.270;10.546;2023-02-28T03:52:00;5.53;;;2.63;;
54452;SDS011;40363;52.270;10.546;2023-02-28T03:54:30;5.32;;;3.00;;
54452;SDS011;40363;52.270;10.546;2023-02-28T03:57:02;5.70;;;3.47;;
54452;SDS011;40363;52.270;10.546;2023-02-28T03:59:34;7.72;;;3.17;;
54452;SDS011;40363;52.270;10.546;2023-02-28T04:02:06;4.95;;;2.83;;
54452;SDS011;40363;52.270;10.546;2023-02-28T04:04:33;5.00;;;2.88;;
54452;SDS011;40363;52.270;10.546;2023-02-28T04:07:03;4.25;;;3.38;;
54452;SDS011;40363;52.270;10.546;2023-02-28T04:09:31;5.15;;;2.72;;
54452;SDS011;40363;52.270;10.546;2023-02-28T04:11:58;6.35;;;3.08;;
54452;SDS011;40363;52.270;10.546;2023-02-28T04:14:24;5.97;;;3.20;;
54452;SDS011;40363;52.270;10.546;2023-02-28T04:16:51;6.32;;;2.75;;
54452;SDS011;40363;52.270;10.546;2023-02-28T04:19:18;2.80;;;2.35;;
54452;SDS011;40363;52.270;10.546;2023-02-28T04:21:46;3.92;;;2.80;;
54452;SDS011;40363;52.270;10.546;2023-02-28T04:24:15;5.40;;;2.63;;
54452;SDS011;40363;52.270;10.546;2023-02-28T04:26:43;4.75;;;2.72;;
54452;SDS011;40363;52.270;10.546;2023-02-28T04:29:12;9.73;;;3.30;;
54452;SDS011;40363;52.270;10.546;2023-02-28T04:31:40;5.03;;;2.80;;
54452;SDS011;40363;52.270;10.546;2023-02-28T04:34:06;5.93;;;3.28;;
54452;SDS011;40363;52.270;10.546;2023-02-28T04:36:33;7.97;;;3.97;;
54452;SDS011;40363;52.270;10.546;2023-02-28T04:39:00;5.40;;;2.72;;
54452;SDS011;40363;52.270;10.546;2023-02-28T04:41:28;4.63;;;3.03;;
54452;SDS011;40363;52.270;10.546;2023-02-28T04:43:54;7.50;;;3.20;;
54452;SDS011;40363;52.270;10.546;2023-02-28T04:46:22;3.60;;;2.40;;
54452;SDS011;40363;52.270;10.546;2023-02-28T04:48:49;3.40;;;2.72;;
54452;SDS011;40363;52.270;10.546;2023-02-28T04:51:16;5.22;;;3.20;;
54452;SDS011;40363;52.270;10.546;2023-02-28T04:53:44;4.53;;;2.85;;
54452;SDS011;40363;52.270;10.546;2023-02-28T04:56:12;7.53;;;2.92;;
54452;SDS011;40363;52.270;10.546;2023-02-28T04:58:42;5.15;;;3.63;;
54452;SDS011;40363;52.270;10.546;2023-02-28T05:01:16;5.55;;;3.25;;
54452;SDS011;40363;52.270;10.546;2023-02-28T05:03:45;8.70;;;3.03;;
54452;SDS011;40363;52.270;10.546;2023-02-28T05:06:12;8.82;;;3.50;;
54452;SDS011;40363;52.270;10.546;2023-02-28T05:08:40;8.32;;;4.15;;
54452;SDS011;40363;52.270;10.546;2023-02-28T05:11:08;5.25;;;3.28;;
54452;SDS011;40363;52.270;10.546;2023-02-28T05:13:41;4.57;;;2.95;;
54452;SDS011;40363;52.270;10.546;2023-02-28T05:16:08;6.03;;;2.72;;
54452;SDS011;40363;52.270;10.546;2023-02-28T05:18:35;5.82;;;2.80;;
54452;SDS011;40363;52.270;10.546;2023-02-28T05:21:02;3.50;;;2.75;;
54452;SDS011;40363;52.270;10.546;2023-02-28T05:23:29;5.90;;;3.30;;
54452;SDS011;40363;52.270;10.546;2023-02-28T05:25:55;4.43;;;3.30;;
54452;SDS011;40363;52.270;10.546;2023-02-28T05:28:22;6.20;;;3.20;;
54452;SDS011;40363;52.270;10.546;2023-02-28T05:30:50;4.57;;;3.20;;
54452;SDS011;40363;52.270;10.546;2023-02-28T05:33:17;5.97;;;3.15;;
54452;SDS011;40363;52.270;10.546;2023-02-28T05:35:43;5.38;;;2.97;;
54452;SDS011;40363;52.270;10.546;2023-02-28T05:38:10;5.28;;;3.33;;
54452;SDS011;40363;52.270;10.546;2023-02-28T05:40:38;5.22;;;2.78;;
54452;SDS011;40363;52.270;10.546;2023-02-28T05:43:04;5.97;;;3.67;;
54452;SDS011;40363;52.270;10.546;2023-02-28T05:45:31;5.80;;;3.00;;
54452;SDS011;40363;52.270;10.546;2023-02-28T05:47:59;3.78;;;3.10;;
54452;SDS011;40363;52.270;10.546;2023-02-28T05:50:25;5.57;;;3.45;;
54452;SDS011;40363;52.270;10.546;2023-02-28T05:52:52;5.70;;;3.67;;
54452;SDS011;40363;52.270;10.546;2023-02-28T05:55:19;5.32;;;3.25;;
54452;SDS011;40363;52.270;10.546;2023-02-28T05:57:45;6.43;;;3.17;;
54452;SDS011;40363;52.270;10.546;2023-02-28T06:00:13;7.82;;;3.35;;
54452;SDS011;40363;52.270;10.546;2023-02-28T06:02:42;8.65;;;3.40;;
54452;SDS011;40363;52.270;10.546;2023-02-28T06:05:13;6.38;;;3.28;;
54452;SDS011;40363;52.270;10.546;2023-02-28T06:07:40;6.22;;;2.70;;
54452;SDS011;40363;52.270;10.546;2023-02-28T06:10:07;4.97;;;2.90;;
54452;SDS011;40363;52.270;10.546;2023-02-28T06:12:35;6.22;;;3.22;;
54452;SDS011;40363;52.270;10.546;2023-02-28T06:15:02;5.70;;;3.60;;
54452;SDS011;40363;52.270;10.546;2023-02-28T06:17:29;4.90;;;3.20;;
54452;SDS011;40363;52.270;10.546;2023-02-28T06:19:56;7.55;;;3.45;;
54452;SDS011;40363;52.270;10.546;2023-02-28T06:22:24;7.38;;;3.38;;
54452;SDS011;40363;52.270;10.546;2023-02-28T06:24:51;4.82;;;2.83;;
54452;SDS011;40363;52.270;10.546;2023-02-28T06:27:19;6.03;;;3.90;;
54452;SDS011;40363;52.270;10.546;2023-02-28T06:29:47;5.00;;;3.63;;
54452;SDS011;40363;52.270;10.546;2023-02-28T06:32:16;9.75;;;3.50;;
54452;SDS011;40363;52.270;10.546;2023-02-28T06:34:43;5.03;;;3.30;;
54452;SDS011;40363;52.270;10.546;2023-02-28T06:37:09;7.72;;;3.55;;
54452;SDS011;40363;52.270;10.546;2023-02-28T06:39:37;4.32;;;2.80;;
54452;SDS011;40363;52.270;10.546;2023-02-28T06:42:04;5.38;;;3.15;;
54452;SDS011;40363;52.270;10.546;2023-02-28T06:44:31;6.25;;;4.25;;
54452;SDS011;40363;52.270;10.546;2023-02-28T06:47:00;6.70;;;3.30;;
54452;SDS011;40363;52.270;10.546;2023-02-28T06:49:28;4.28;;;3.20;;
54452;SDS011;40363;52.270;10.546;2023-02-28T06:51:55;5.40;;;3.42;;
54452;SDS011;40363;52.270;10.546;2023-02-28T06:54:22;8.35;;;3.65;;
54452;SDS011;40363;52.270;10.546;2023-02-28T06:56:50;4.97;;;2.80;;
54452;SDS011;40363;52.270;10.546;2023-02-28T06:59:17;5.68;;;4.05;;
54452;SDS011;40363;52.270;10.546;2023-02-28T07:01:44;9.20;;;3.65;;
54452;SDS011;40363;52.270;10.546;2023-02-28T07:04:11;7.70;;;3.58;;
54452;SDS011;40363;52.270;10.546;2023-02-28T07:06:38;8.30;;;3.20;;
54452;SDS011;40363;52.270;10.546;2023-02-28T07:09:05;6.47;;;3.22;;
54452;SDS011;40363;52.270;10.546;2023-02-28T07:11:31;4.72;;;3.20;;
54452;SDS011;40363;52.270;10.546;2023-02-28T07:14:00;7.07;;;2.88;;
54452;SDS011;40363;52.270;10.546;2023-02-28T07:16:26;8.05;;;2.63;;
54452;SDS011;40363;52.270;10.546;2023-02-28T07:18:53;5.45;;;3.28;;
54452;SDS011;40363;52.270;10.546;2023-02-28T07:21:21;3.88;;;3.05;;
54452;SDS011;40363;52.270;10.546;2023-02-28T07:23:48;5.50;;;2.55;;
54452;SDS011;40363;52.270;10.546;2023-02-28T07:26:15;8.27;;;2.95;;
54452;SDS011;40363;52.270;10.546;2023-02-28T07:28:43;4.30;;;2.90;;
54452;SDS011;40363;52.270;10.546;2023-02-28T07:31:13;5.63;;;2.58;;
54452;SDS011;40363;52.270;10.546;2023-02-28T07:33:40;4.47;;;2.55;;
54452;SDS011;40363;52.270;10.546;2023-02-28T07:36:08;4.85;;;2.38;;
54452;SDS011;40363;52.270;10.546;2023-02-28T07:38:39;4.55;;;2.50;;
54452;SDS011;40363;52.270;10.546;2023-02-28T07:41:05;5.28;;;2.30;;
54452;SDS011;40363;52.270;10.546;2023-02-28T07:43:33;5.55;;;2.70;;
54452;SDS011;40363;52.270;10.546;2023-02-28T07:46:01;3.63;;;2.10;;
54452;SDS011;40363;52.270;10.546;2023-02-28T07:48:31;3.72;;;2.00;;
54452;SDS011;40363;52.270;10.546;2023-02-28T07:50:58;3.90;;;2.03;;
54452;SDS011;40363;52.270;10.546;2023-02-28T07:53:26;2.97;;;2.58;;
54452;SDS011;40363;52.270;10.546;2023-02-28T07:55:54;5.03;;;2.00;;
54452;SDS011;40363;52.270;10.546;2023-02-28T07:58:21;2.95;;;1.73;;
54452;SDS011;40363;52.270;10.546;2023-02-28T08:00:48;3.53;;;2.28;;
54452;SDS011;40363;52.270;10.546;2023-02-28T08:03:15;3.58;;;1.70;;
54452;SDS011;40363;52.270;10.546;2023-02-28T08:05:44;2.95;;;1.92;;
54452;SDS011;40363;52.270;10.546;2023-02-28T08:08:11;2.15;;;1.95;;
54452;SDS011;40363;52.270;10.546;2023-02-28T08:10:38;2.60;;;1.80;;
54452;SDS011;40363;52.270;10.546;2023-02-28T08:13:05;3.65;;;2.45;;
54452;SDS011;40363;52.270;10.546;2023-02-28T08:15:31;5.82;;;2.90;;
54452;SDS011;40363;52.270;10.546;2023-02-28T08:17:58;3.85;;;2.70;;
54452;SDS011;40363;52.270;10.546;2023-02-28T08:20:25;7.63;;;3.10;;
54452;SDS011;40363;52.270;10.546;2023-02-28T08:22:54;3.97;;;2.20;;
54452;SDS011;40363;52.270;10.546;2023-02-28T08:25:21;6.88;;;3.15;;
54452;SDS011;40363;52.270;10.546;2023-02-28T08:27:50;4.53;;;2.47;;
54452;SDS011;40363;52.270;10.546;2023-02-28T08:30:17;5.63;;;3.17;;
54452;SDS011;40363;52.270;10.546;2023-02-28T08:32:44;4.72;;;2.10;;
54452;SDS011;40363;52.270;10.546;2023-02-28T08:35:10;3.90;;;2.70;;
54452;SDS011;40363;52.270;10.546;2023-02-28T08:37:37;3.58;;;2.97;;
54452;SDS011;40363;52.270;10.546;2023-02-28T08:40:06;2.85;;;2.15;;
54452;SDS011;40363;52.270;10.546;2023-02-28T08:42:34;6.70;;;3.15;;
54452;SDS011;40363;52.270;10.546;2023-02-28T08:45:00;6.00;;;2.90;;
54452;SDS011;40363;52.270;10.546;2023-02-28T08:47:27;4.70;;;2.50;;
54452;SDS011;40363;52.270;10.546;2023-02-28T08:49:54;4.85;;;2.15;;
54452;SDS011;40363;52.270;10.546;2023-02-28T08:52:20;5.10;;;2.00;;
54452;SDS011;40363;52.270;10.546;2023-02-28T08:54:47;3.45;;;2.47;;
54452;SDS011;40363;52.270;10.546;2023-02-28T08:57:15;5.88;;;2.85;;
54452;SDS011;40363;52.270;10.546;2023-02-28T08:59:42;3.55;;;1.88;;
54452;SDS011;40363;52.270;10.546;2023-02-28T09:02:09;4.00;;;2.33;;
54452;SDS011;40363;52.270;10.546;2023-02-28T09:04:38;6.18;;;2.15;;
54452;SDS011;40363;52.270;10.546;2023-02-28T09:07:04;3.50;;;2.25;;
54452;SDS011;40363;52.270;10.546;2023-02-28T09:09:31;7.45;;;2.30;;
54452;SDS011;40363;52.270;10.546;2023-02-28T09:11:58;5.05;;;2.20;;
54452;SDS011;40363;52.270;10.546;2023-02-28T09:14:26;3.78;;;2.58;;
54452;SDS011;40363;52.270;10.546;2023-02-28T09:16:53;4.15;;;1.92;;
54452;SDS011;40363;52.270;10.546;2023-02-28T09:19:20;4.75;;;2.20;;
54452;SDS011;40363;52.270;10.546;2023-02-28T09:21:47;2.85;;;1.77;;
54452;SDS011;40363;52.270;10.546;2023-02-28T09:24:13;4.50;;;2.33;;
54452;SDS011;40363;52.270;10.546;2023-02-28T09:26:40;4.35;;;2.17;;
54452;SDS011;40363;52.270;10.546;2023-02-28T09:29:07;3.75;;;2.08;;
54452;SDS011;40363;52.270;10.546;2023-02-28T09:31:35;3.78;;;1.90;;
54452;SDS011;40363;52.270;10.546;2023-02-28T09:34:03;4.72;;;2.20;;
54452;SDS011;40363;52.270;10.546;2023-02-28T09:36:30;4.32;;;2.20;;
54452;SDS011;40363;52.270;10.546;2023-02-28T09:38:58;6.18;;;2.35;;
54452;SDS011;40363;52.270;10.546;2023-02-28T09:41:25;5.15;;;1.92;;
54452;SDS011;40363;52.270;10.546;2023-02-28T09:43:55;5.03;;;2.90;;
54452;SDS011;40363;52.270;10.546;2023-02-28T09:46:28;5.10;;;2.22;;
54452;SDS011;40363;52.270;10.546;2023-02-28T09:49:00;4.60;;;2.42;;
54452;SDS011;40363;52.270;10.546;2023-02-28T09:51:33;5.97;;;2.17;;
54452;SDS011;40363;52.270;10.546;2023-02-28T09:54:09;3.60;;;1.83;;
54452;SDS011;40363;52.270;10.546;2023-02-28T09:56:44;3.40;;;1.67;;
54452;SDS011;40363;52.270;10.546;2023-02-28T09:59:18;2.67;;;1.40;;
54452;SDS011;40363;52.270;10.546;2023-02-28T10:02:08;2.92;;;1.63;;
54452;SDS011;40363;52.270;10.546;2023-02-28T10:04:47;3.90;;;1.95;;
54452;SDS011;40363;52.270;10.546;2023-02-28T10:07:22;2.30;;;1.50;;
54452;SDS011;40363;52.270;10.546;2023-02-28T10:10:04;7.07;;;1.85;;
54452;SDS011;40363;52.270;10.546;2023-02-28T10:12:42;5.15;;;1.60;;
54452;SDS011;40363;52.270;10.546;2023-02-28T10:15:13;3.08;;;1.42;;
54452;SDS011;40363;52.270;10.546;2023-02-28T10:17:42;2.53;;;1.55;;
54452;SDS011;40363;52.270;10.546;2023-02-28T10:20:14;5.68;;;1.52;;
54452;SDS011;40363;52.270;10.546;2023-02-28T10:22:50;3.40;;;1.93;;
54452;SDS011;40363;52.270;10.546;2023-02-28T10:25:20;5.78;;;2.03;;
54452;SDS011;40363;52.270;10.546;2023-02-28T10:27:48;3.58;;;1.77;;
54452;SDS011;40363;52.270;10.546;2023-02-28T10:30:15;2.03;;;1.33;;
54452;SDS011;40363;52.270;10.546;2023-02-28T10:32:44;3.28;;;1.45;;
54452;SDS011;40363;52.270;10.546;2023-02-28T10:35:17;2.33;;;1.42;;
54452;SDS011;40363;52.270;10.546;2023-02-28T10:37:46;2.17;;;1.08;;
54452;SDS011;40363;52.270;10.546;2023-02-28T10:40:25;1.63;;;1.27;;
54452;SDS011;40363;52.270;10.546;2023-02-28T10:42:55;2.28;;;1.13;;
54452;SDS011;40363;52.270;10.546;2023-02-28T10:45:22;3.40;;;1.50;;
54452;SDS011;40363;52.270;10.546;2023-02-28T10:47:51;1.50;;;1.02;;
54452;SDS011;40363;52.270;10.546;2023-02-28T10:50:31;1.42;;;0.88;;
54452;SDS011;40363;52.270;10.546;2023-02-28T10:53:13;0.95;;;0.88;;
54452;SDS011;40363;52.270;10.546;2023-02-28T10:55:54;3.45;;;1.35;;
54452;SDS011;40363;52.270;10.546;2023-02-28T10:58:23;1.10;;;0.80;;
54452;SDS011;40363;52.270;10.546;2023-02-28T11:00:51;2.30;;;1.10;;
54452;SDS011;40363;52.270;10.546;2023-02-28T11:03:25;3.00;;;1.05;;
54452;SDS011;40363;52.270;10.546;2023-02-28T11:05:58;1.70;;;0.77;;
54452;SDS011;40363;52.270;10.546;2023-02-28T11:08:25;4.03;;;0.77;;
54452;SDS011;40363;52.270;10.546;2023-02-28T11:10:55;2.30;;;1.42;;
54452;SDS011;40363;52.270;10.546;2023-02-28T11:13:25;2.60;;;1.17;;
54452;SDS011;40363;52.270;10.546;2023-02-28T11:15:55;2.30;;;1.02;;
54452;SDS011;40363;52.270;10.546;2023-02-28T11:18:26;2.15;;;1.50;;
54452;SDS011;40363;52.270;10.546;2023-02-28T11:20:56;2.75;;;1.75;;
54452;SDS011;40363;52.270;10.546;2023-02-28T11:23:29;3.85;;;2.17;;
54452;SDS011;40363;52.270;10.546;2023-02-28T11:25:59;1.85;;;1.65;;
54452;SDS011;40363;52.270;10.546;2023-02-28T11:28:30;4.90;;;1.48;;
54452;SDS011;40363;52.270;10.546;2023-02-28T11:30:59;2.95;;;1.38;;
54452;SDS011;40363;52.270;10.546;2023-02-28T11:33:28;3.33;;;1.50;;
54452;SDS011;40363;52.270;10.546;2023-02-28T11:35:57;3.58;;;1.92;;
54452;SDS011;40363;52.270;10.546;2023-02-28T11:38:27;2.17;;;1.52;;
54452;SDS011;40363;52.270;10.546;2023-02-28T11:41:11;1.95;;;1.58;;
54452;SDS011;40363;52.270;10.546;2023-02-28T11:43:55;5.00;;;1.50;;
54452;SDS011;40363;52.270;10.546;2023-02-28T11:46:33;3.58;;;1.75;;
54452;SDS011;40363;52.270;10.546;2023-02-28T11:49:10;2.67;;;1.70;;
54452;SDS011;40363;52.270;10.546;2023-02-28T11:51:51;2.83;;;1.25;;
54452;SDS011;40363;52.270;10.546;2023-02-28T11:54:32;2.90;;;1.60;;
54452;SDS011;40363;52.270;10.546;2023-02-28T11:57:16;3.50;;;1.40;;
54452;SDS011;40363;52.270;10.546;2023-02-28T11:59:56;2.33;;;1.52;;
54452;SDS011;40363;52.270;10.546;2023-02-28T12:02:29;3.42;;;1.42;;
54452;SDS011;40363;52.270;10.546;2023-02-28T12:05:08;2.60;;;1.55;;
54452;SDS011;40363;52.270;10.546;2023-02-28T12:07:49;2.50;;;1.98;;
54452;SDS011;40363;52.270;10.546;2023-02-28T12:10:25;2.92;;;1.50;;
54452;SDS011;40363;52.270;10.546;2023-02-28T12:13:04;3.50;;;1.60;;
54452;SDS011;40363;52.270;10.546;2023-02-28T12:15:45;1.60;;;1.23;;
54452;SDS011;40363;52.270;10.546;2023-02-28T12:18:28;1.80;;;1.30;;
54452;SDS011;40363;52.270;10.546;2023-02-28T12:21:10;2.78;;;1.45;;
54452;SDS011;40363;52.270;10.546;2023-02-28T12:23:52;3.15;;;1.67;;
54452;SDS011;40363;52.270;10.546;2023-02-28T12:26:29;1.63;;;1.33;;
54452;SDS011;40363;52.270;10.546;2023-02-28T12:29:03;2.55;;;1.35;;
54452;SDS011;40363;52.270;10.546;2023-02-28T12:31:36;3.13;;;1.45;;
54452;SDS011;40363;52.270;10.546;2023-02-28T12:34:09;3.97;;;1.85;;
54452;SDS011;40363;52.270;10.546;2023-02-28T12:36:39;2.65;;;1.58;;
54452;SDS011;40363;52.270;10.546;2023-02-28T12:39:12;2.15;;;1.63;;
54452;SDS011;40363;52.270;10.546;2023-02-28T12:41:45;3.03;;;1.52;;
54452;SDS011;40363;52.270;10.546;2023-02-28T12:44:17;4.53;;;1.63;;
54452;SDS011;40363;52.270;10.546;2023-02-28T12:46:48;2.28;;;1.85;;
54452;SDS011;40363;52.270;10.546;2023-02-28T12:49:17;2.85;;;1.58;;
54452;SDS011;40363;52.270;10.546;2023-02-28T12:51:47;3.70;;;1.50;;
54452;SDS011;40363;52.270;10.546;2023-02-28T12:54:19;2.25;;;1.60;;
54452;SDS011;40363;52.270;10.546;2023-02-28T12:56:56;2.60;;;1.42;;
54452;SDS011;40363;52.270;10.546;2023-02-28T12:59:32;3.00;;;1.42;;
54452;SDS011;40363;52.270;10.546;2023-02-28T13:08:24;4.20;;;1.48;;
54452;SDS011;40363;52.270;10.546;2023-02-28T13:11:06;2.22;;;1.30;;
54452;SDS011;40363;52.270;10.546;2023-02-28T13:13:35;4.22;;;1.55;;
54452;SDS011;40363;52.270;10.546;2023-02-28T13:16:03;1.98;;;1.10;;
54452;SDS011;40363;52.270;10.546;2023-02-28T13:18:33;1.40;;;1.20;;
54452;SDS011;40363;52.270;10.546;2023-02-28T13:21:04;2.88;;;1.52;;
54452;SDS011;40363;52.270;10.546;2023-02-28T13:23:40;2.17;;;1.42;;
54452;SDS011;40363;52.270;10.546;2023-02-28T13:26:37;3.35;;;1.70;;
54452;SDS011;40363;52.270;10.546;2023-02-28T13:29:56;8.90;;;2.22;;
54452;SDS011;40363;52.270;10.546;2023-02-28T13:38:24;2.55;;;1.63;;
54452;SDS011;40363;52.270;10.546;2023-02-28T13:44:02;3.10;;;1.48;;
54452;SDS011;40363;52.270;10.546;2023-02-28T13:46:30;2.30;;;1.58;;
54452;SDS011;40363;52.270;10.546;2023-02-28T13:51:45;2.92;;;1.63;;
54452;SDS011;40363;52.270;10.546;2023-02-28T13:54:18;2.53;;;1.80;;
54452;SDS011;40363;52.270;10.546;2023-02-28T13:57:01;3.10;;;1.60;;
54452;SDS011;40363;52.270;10.546;2023-02-28T13:59:38;2.38;;;1.33;;
54452;SDS011;40363;52.270;10.546;2023-02-28T14:02:27;6.78;;;1.73;;
54452;SDS011;40363;52.270;10.546;2023-02-28T14:05:13;4.05;;;1.90;;
54452;SDS011;40363;52.270;10.546;2023-02-28T14:07:43;4.03;;;1.80;;
54452;SDS011;40363;52.270;10.546;2023-02-28T14:10:20;4.32;;;1.80;;
54452;SDS011;40363;52.270;10.546;2023-02-28T14:13:02;5.38;;;1.58;;
54452;SDS011;40363;52.270;10.546;2023-02-28T14:15:54;3.08;;;1.67;;
54452;SDS011;40363;52.270;10.546;2023-02-28T14:20:56;3.10;;;1.48;;
54452;SDS011;40363;52.270;10.546;2023-02-28T14:23:36;2.75;;;1.30;;
54452;SDS011;40363;52.270;10.546;2023-02-28T14:26:18;4.30;;;1.60;;
54452;SDS011;40363;52.270;10.546;2023-02-28T14:29:09;4.55;;;1.67;;
54452;SDS011;40363;52.270;10.546;2023-02-28T14:31:51;2.15;;;1.75;;
54452;SDS011;40363;52.270;10.546;2023-02-28T14:34:36;2.83;;;1.55;;
54452;SDS011;40363;52.270;10.546;2023-02-28T14:37:11;3.47;;;1.80;;
54452;SDS011;40363;52.270;10.546;2023-02-28T14:39:42;3.83;;;1.80;;
54452;SDS011;40363;52.270;10.546;2023-02-28T14:42:25;2.55;;;1.42;;
54452;SDS011;40363;52.270;10.546;2023-02-28T14:44:55;3.22;;;1.83;;
54452;SDS011;40363;52.270;10.546;2023-02-28T14:47:25;5.38;;;1.90;;
54452;SDS011;40363;52.270;10.546;2023-02-28T14:49:54;2.53;;;1.70;;
54452;SDS011;40363;52.270;10.546;2023-02-28T14:52:22;3.70;;;1.70;;
54452;SDS011;40363;52.270;10.546;2023-02-28T14:54:52;3.20;;;1.90;;
54452;SDS011;40363;52.270;10.546;2023-02-28T14:57:21;3.92;;;2.22;;
54452;SDS011;40363;52.270;10.546;2023-02-28T14:59:56;2.95;;;1.83;;
54452;SDS011;40363;52.270;10.546;2023-02-28T15:02:28;3.25;;;2.00;;
54452;SDS011;40363;52.270;10.546;2023-02-28T15:04:57;3.75;;;2.15;;
54452;SDS011;40363;52.270;10.546;2023-02-28T15:07:26;4.35;;;2.78;;
54452;SDS011;40363;52.270;10.546;2023-02-28T15:10:09;2.78;;;1.80;;
54452;SDS011;40363;52.270;10.546;2023-02-28T15:12:39;4.75;;;2.13;;
54452;SDS011;40363;52.270;10.546;2023-02-28T15:15:14;4.05;;;2.08;;
54452;SDS011;40363;52.270;10.546;2023-02-28T15:17:43;2.30;;;1.65;;
54452;SDS011;40363;52.270;10.546;2023-02-28T15:20:13;2.15;;;1.90;;